Time;durP1;ratioP1;P1;durP2;ratioP2;P2;SDS_P1;SDS_P2;PMS_P1;PMS_P2;Temp;Humidity;BMP_temperature;BMP_pressure;BME280_temperature;BME280_humidity;BME280_pressure;Samples;Min_cycle;Max_cycle;Signal;HPM_P1;HPM_P2
2023/12/11 00:02:15;;;;;;;3.15;1.20;;;7.90;98.40;;;;;;4974534;28;20211;-45
2023/12/11 00:04:43;;;;;;;2.50;0.90;;;7.80;98.40;;;;;;4974767;28;20253;-45
2023/12/11 00:07:12;;;;;;;4.03;1.10;;;7.90;98.50;;;;;;4972441;28;20195;-45
2023/12/11 00:09:40;;;;;;;4.35;1.02;;;7.90;98.80;;;;;;4974273;28;20310;-45
2023/12/11 00:12:08;;;;;;;2.08;0.85;;;7.90;98.50;;;;;;4970866;28;20187;-45
2023/12/11 00:14:36;;;;;;;2.75;1.00;;;7.90;98.50;;;;;;4974904;28;20230;-45
2023/12/11 00:17:06;;;;;;;2.83;0.90;;;7.90;98.40;;;;;;4974859;28;20191;-45
2023/12/11 00:19:34;;;;;;;3.00;1.20;;;7.90;98.30;;;;;;4973611;28;20721;-45
2023/12/11 00:22:02;;;;;;;1.70;0.70;;;7.90;98.50;;;;;;4972874;28;20190;-45
2023/12/11 00:24:31;;;;;;;2.95;1.15;;;7.90;98.40;;;;;;4974917;28;20714;-44
2023/12/11 00:26:59;;;;;;;2.88;1.05;;;7.90;98.40;;;;;;4964473;28;20274;-45
2023/12/11 00:29:27;;;;;;;1.42;0.65;;;7.90;98.40;;;;;;4973546;28;20254;-45
2023/12/11 00:31:55;;;;;;;7.57;1.20;;;7.90;98.50;;;;;;4973978;28;20668;-45
2023/12/11 00:34:24;;;;;;;2.90;1.00;;;7.90;98.40;;;;;;4973657;28;20942;-45
2023/12/11 00:36:52;;;;;;;2.83;1.15;;;7.90;98.40;;;;;;4967829;28;20194;-45
2023/12/11 00:39:20;;;;;;;3.58;0.90;;;7.90;98.30;;;;;;4973531;28;20775;-45
2023/12/11 00:41:50;;;;;;;1.55;0.90;;;7.90;98.30;;;;;;4971125;28;20198;-45
2023/12/11 00:44:19;;;;;;;1.85;0.90;;;7.90;98.40;;;;;;4977242;28;20224;-45
2023/12/11 00:46:47;;;;;;;5.55;1.65;;;7.90;98.30;;;;;;4973483;28;20299;-45
2023/12/11 00:49:15;;;;;;;3.30;1.00;;;7.90;98.40;;;;;;4971823;28;20239;-45
2023/12/11 00:51:46;;;;;;;2.80;1.25;;;7.90;98.40;;;;;;4970576;28;20289;-46
2023/12/11 00:54:14;;;;;;;6.05;1.33;;;7.90;98.30;;;;;;4971897;28;20227;-46
2023/12/11 00:56:42;;;;;;;3.55;0.95;;;7.90;98.40;;;;;;4970722;28;20229;-46
2023/12/11 00:59:10;;;;;;;3.55;1.10;;;7.90;98.40;;;;;;4971818;28;20322;-46
2023/12/11 01:01:38;;;;;;;3.95;1.17;;;7.90;98.40;;;;;;4974312;28;20277;-45
2023/12/11 01:04:07;;;;;;;2.38;1.50;;;7.90;98.40;;;;;;4973725;28;20243;-44
2023/12/11 01:06:35;;;;;;;4.22;2.00;;;7.90;98.40;;;;;;4966285;28;20691;-45
2023/12/11 01:09:04;;;;;;;3.67;1.35;;;7.90;98.50;;;;;;4972982;28;20215;-45
2023/12/11 01:11:32;;;;;;;9.73;1.60;;;7.90;98.50;;;;;;4971155;28;20497;-43
2023/12/11 01:14:00;;;;;;;2.15;1.20;;;7.90;98.40;;;;;;4973188;28;20211;-45
2023/12/11 01:16:28;;;;;;;2.70;1.48;;;7.90;98.40;;;;;;4974039;28;20246;-46
2023/12/11 01:18:56;;;;;;;3.72;1.23;;;7.90;98.40;;;;;;4975014;28;20322;-46
2023/12/11 01:21:24;;;;;;;4.35;1.10;;;7.90;98.30;;;;;;4967352;28;20325;-45
2023/12/11 01:23:52;;;;;;;7.00;1.45;;;7.90;98.40;;;;;;4972227;28;20248;-45
2023/12/11 01:26:26;;;;;;;2.63;0.98;;;7.90;98.50;;;;;;4970106;28;20547;-46
2023/12/11 01:28:54;;;;;;;2.85;1.00;;;7.90;98.40;;;;;;4972135;28;20310;-46
2023/12/11 01:31:22;;;;;;;4.20;1.23;;;7.90;98.30;;;;;;4972026;28;20242;-46
2023/12/11 01:33:50;;;;;;;5.50;1.48;;;7.90;98.40;;;;;;4973898;28;20663;-44
2023/12/11 01:36:18;;;;;;;5.05;0.98;;;7.90;98.40;;;;;;4965794;28;20606;-45
2023/12/11 01:38:47;;;;;;;5.30;1.23;;;7.90;98.40;;;;;;4973542;28;20577;-45
2023/12/11 01:41:15;;;;;;;2.60;1.00;;;7.90;98.30;;;;;;4970420;28;20584;-45
2023/12/11 01:43:54;;;;;;;2.60;1.35;;;7.90;98.30;;;;;;4971576;28;20289;-45
2023/12/11 01:46:24;;;;;;;5.90;1.55;;;7.90;98.60;;;;;;4972029;28;20191;-45
2023/12/11 01:48:53;;;;;;;4.80;1.60;;;7.90;98.80;;;;;;4969829;28;20211;-45
2023/12/11 01:51:22;;;;;;;5.05;1.65;;;7.90;98.50;;;;;;4963040;28;20183;-46
2023/12/11 01:53:52;;;;;;;4.75;1.30;;;7.90;98.40;;;;;;4970952;28;20223;-46
2023/12/11 01:56:21;;;;;;;3.72;1.20;;;7.90;98.30;;;;;;4968876;28;20284;-46
2023/12/11 01:58:52;;;;;;;2.45;1.05;;;7.90;98.30;;;;;;4971664;28;20288;-46
2023/12/11 02:01:23;;;;;;;3.42;1.25;;;8.00;98.40;;;;;;4972598;28;20287;-45
2023/12/11 02:03:51;;;;;;;4.30;1.23;;;7.90;98.30;;;;;;4976114;28;20234;-45
2023/12/11 02:06:20;;;;;;;5.80;1.88;;;7.90;98.30;;;;;;4966079;28;20216;-45
2023/12/11 02:08:49;;;;;;;2.53;1.17;;;7.90;98.40;;;;;;4973384;28;20245;-46
2023/12/11 02:11:17;;;;;;;3.65;1.30;;;7.90;98.40;;;;;;4970729;28;20227;-45
2023/12/11 02:13:45;;;;;;;2.17;1.05;;;7.90;98.40;;;;;;4971987;28;20286;-45
2023/12/11 02:16:16;;;;;;;3.00;0.93;;;7.90;98.30;;;;;;4979297;28;20228;-45
2023/12/11 02:18:45;;;;;;;4.80;1.58;;;7.90;98.40;;;;;;4972858;28;20295;-45
2023/12/11 02:21:13;;;;;;;5.22;1.10;;;7.90;98.30;;;;;;4968678;28;20195;-45
2023/12/11 02:23:47;;;;;;;3.78;0.95;;;7.90;98.40;;;;;;4971978;28;20253;-45
2023/12/11 02:26:18;;;;;;;6.60;1.77;;;7.90;98.40;;;;;;4970742;28;20730;-45
2023/12/11 02:28:46;;;;;;;3.53;1.10;;;7.90;98.40;;;;;;4971453;28;20275;-45
2023/12/11 02:31:15;;;;;;;6.30;2.15;;;7.90;98.30;;;;;;4972821;28;20210;-45
2023/12/11 02:33:43;;;;;;;4.28;1.00;;;7.90;98.50;;;;;;4973587;28;20234;-45
2023/12/11 02:36:11;;;;;;;4.38;1.45;;;7.90;98.40;;;;;;4967140;28;20205;-46
2023/12/11 02:38:39;;;;;;;3.05;1.20;;;7.90;98.40;;;;;;4971965;28;20246;-45
2023/12/11 02:41:07;;;;;;;5.28;1.33;;;7.90;98.40;;;;;;4972535;28;20278;-46
2023/12/11 02:43:37;;;;;;;3.95;1.38;;;8.00;98.30;;;;;;4983918;28;20297;-45
2023/12/11 02:46:05;;;;;;;7.03;1.70;;;7.90;98.40;;;;;;4971502;28;20802;-45
2023/12/11 02:48:33;;;;;;;5.15;1.92;;;7.90;98.30;;;;;;4971643;28;20244;-45
2023/12/11 02:51:01;;;;;;;5.18;1.38;;;8.00;98.80;;;;;;4967985;28;20204;-45
2023/12/11 02:53:30;;;;;;;5.47;1.70;;;7.90;98.30;;;;;;4972264;28;20226;-44
2023/12/11 02:55:58;;;;;;;4.78;1.40;;;7.90;98.30;;;;;;4972834;28;20195;-45
2023/12/11 02:58:28;;;;;;;4.90;1.50;;;7.90;98.20;;;;;;4968056;28;20242;-45
2023/12/11 03:00:57;;;;;;;3.88;1.77;;;7.90;98.40;;;;;;4975445;28;20677;-45
2023/12/11 03:03:25;;;;;;;2.88;1.13;;;7.90;98.20;;;;;;4975338;28;20236;-45
2023/12/11 03:05:53;;;;;;;2.00;0.97;;;8.00;98.30;;;;;;4972153;28;20487;-45
2023/12/11 03:08:21;;;;;;;4.63;1.80;;;7.90;98.20;;;;;;4973335;28;20976;-45
2023/12/11 03:10:49;;;;;;;7.13;1.35;;;8.00;98.30;;;;;;4977146;28;20245;-45
2023/12/11 03:13:17;;;;;;;4.47;1.20;;;7.90;98.20;;;;;;4971980;28;20223;-45
2023/12/11 03:15:45;;;;;;;6.18;1.75;;;8.00;98.20;;;;;;4977337;28;20304;-45
2023/12/11 03:18:15;;;;;;;4.72;1.48;;;7.90;98.20;;;;;;4976191;28;20238;-45
2023/12/11 03:20:43;;;;;;;2.47;1.00;;;8.00;98.40;;;;;;4976755;28;20200;-44
2023/12/11 03:23:11;;;;;;;3.23;1.40;;;7.90;98.30;;;;;;4970797;28;20283;-45
2023/12/11 03:25:39;;;;;;;4.40;1.70;;;8.00;98.30;;;;;;4977137;28;20431;-45
2023/12/11 03:28:07;;;;;;;5.35;1.70;;;8.00;98.50;;;;;;4972245;28;20349;-44
2023/12/11 03:30:35;;;;;;;4.63;1.37;;;8.00;98.20;;;;;;4976432;28;20202;-45
2023/12/11 03:33:03;;;;;;;7.20;1.40;;;7.90;98.20;;;;;;4967793;28;20455;-45
2023/12/11 03:35:32;;;;;;;4.07;1.20;;;8.00;98.30;;;;;;4967949;28;20510;-45
2023/12/11 03:38:00;;;;;;;8.80;1.33;;;8.00;98.30;;;;;;4975531;28;20485;-45
2023/12/11 03:40:28;;;;;;;5.28;1.73;;;8.00;98.20;;;;;;4975638;28;20196;-45
2023/12/11 03:42:56;;;;;;;4.80;1.40;;;7.90;98.10;;;;;;4972652;28;20209;-45
2023/12/11 03:45:24;;;;;;;5.13;1.73;;;7.90;98.30;;;;;;4974637;28;20672;-45
2023/12/11 03:47:52;;;;;;;6.43;2.00;;;8.00;98.30;;;;;;4973998;28;20661;-45
2023/12/11 03:50:20;;;;;;;4.50;1.42;;;7.90;98.10;;;;;;4968760;28;20254;-45
2023/12/11 03:52:50;;;;;;;4.23;1.60;;;7.90;98.40;;;;;;4975762;28;20222;-45
2023/12/11 03:55:18;;;;;;;5.50;1.98;;;7.90;98.30;;;;;;4955578;28;20474;-45
2023/12/11 03:57:46;;;;;;;3.90;1.52;;;7.90;98.10;;;;;;4954800;28;20218;-45
2023/12/11 04:00:14;;;;;;;7.57;1.50;;;8.00;98.80;;;;;;4973999;28;20227;-45
2023/12/11 04:02:42;;;;;;;4.75;2.03;;;8.00;98.30;;;;;;4976208;28;20203;-45
2023/12/11 04:05:11;;;;;;;5.63;1.42;;;8.00;98.20;;;;;;4969350;28;20227;-45
2023/12/11 04:07:38;;;;;;;4.53;1.30;;;8.00;98.30;;;;;;4973585;28;20242;-45
2023/12/11 04:10:09;;;;;;;3.78;1.85;;;8.00;98.30;;;;;;4975829;28;20231;-44
2023/12/11 04:12:38;;;;;;;4.15;1.80;;;8.00;98.30;;;;;;4975019;28;20195;-45
2023/12/11 04:15:07;;;;;;;6.35;1.45;;;8.00;98.30;;;;;;4973293;28;20223;-45
2023/12/11 04:17:35;;;;;;;3.55;1.10;;;8.00;98.30;;;;;;4977021;28;20191;-45
2023/12/11 04:20:03;;;;;;;5.63;2.17;;;8.00;98.20;;;;;;4977569;28;20218;-44
2023/12/11 04:22:32;;;;;;;3.40;0.98;;;8.00;98.30;;;;;;4981371;28;20205;-45
2023/12/11 04:25:00;;;;;;;5.15;1.60;;;8.00;98.20;;;;;;4953979;28;20705;-45
2023/12/11 04:27:29;;;;;;;4.80;1.50;;;8.00;98.30;;;;;;4973185;28;20187;-45
2023/12/11 04:29:58;;;;;;;3.78;1.30;;;8.00;98.30;;;;;;4975780;28;20227;-45
2023/12/11 04:32:26;;;;;;;3.08;1.30;;;8.00;98.70;;;;;;4975440;28;20678;-45
2023/12/11 04:34:54;;;;;;;2.83;1.35;;;8.00;98.30;;;;;;4972951;28;20239;-45
2023/12/11 04:37:22;;;;;;;5.20;2.10;;;8.00;98.20;;;;;;4972433;28;20208;-45
2023/12/11 04:39:50;;;;;;;7.07;2.10;;;8.00;98.20;;;;;;4976379;28;20238;-45
2023/12/11 04:42:18;;;;;;;4.57;1.80;;;8.00;98.20;;;;;;4971350;28;20222;-44
2023/12/11 04:44:47;;;;;;;3.92;1.27;;;8.00;98.40;;;;;;4975754;28;20219;-44
2023/12/11 04:47:15;;;;;;;5.03;1.50;;;8.00;98.30;;;;;;4974453;28;20242;-45
2023/12/11 04:49:43;;;;;;;4.05;1.60;;;8.00;98.40;;;;;;4971609;28;20284;-45
2023/12/11 04:52:11;;;;;;;4.10;1.50;;;8.00;98.30;;;;;;4975292;28;20294;-45
2023/12/11 04:54:39;;;;;;;5.90;1.52;;;8.00;98.60;;;;;;4975892;28;20297;-45
2023/12/11 04:57:08;;;;;;;5.50;1.42;;;8.00;98.30;;;;;;4971806;28;20199;-45
2023/12/11 04:59:35;;;;;;;6.53;1.40;;;8.00;98.40;;;;;;4975113;28;20323;-45
2023/12/11 05:02:05;;;;;;;3.78;1.55;;;8.00;98.40;;;;;;4968460;28;20206;-45
2023/12/11 05:04:33;;;;;;;4.65;1.90;;;8.00;98.40;;;;;;4972208;28;20247;-45
2023/12/11 05:07:01;;;;;;;4.35;1.05;;;8.00;98.40;;;;;;4975036;28;20191;-45
2023/12/11 05:09:29;;;;;;;6.18;1.45;;;8.00;98.40;;;;;;4974735;28;20218;-45
2023/12/11 05:11:57;;;;;;;5.07;1.55;;;8.00;98.40;;;;;;4971444;28;20218;-45
2023/12/11 05:14:25;;;;;;;3.70;1.30;;;8.00;98.40;;;;;;4974118;28;20270;-45
2023/12/11 05:16:53;;;;;;;3.53;1.85;;;8.00;98.40;;;;;;4973261;28;20509;-45
2023/12/11 05:19:23;;;;;;;4.00;1.98;;;8.00;98.40;;;;;;4973896;28;20230;-45
2023/12/11 05:21:51;;;;;;;5.18;1.40;;;8.00;98.30;;;;;;4971951;28;20754;-45
2023/12/11 05:24:22;;;;;;;5.82;1.17;;;8.00;99.10;;;;;;4973457;28;20578;-45
2023/12/11 05:26:51;;;;;;;4.75;1.90;;;8.00;98.50;;;;;;4972762;28;20261;-45
2023/12/11 05:29:19;;;;;;;2.83;1.10;;;8.00;98.60;;;;;;4974083;28;20239;-44
2023/12/11 05:31:47;;;;;;;3.45;1.15;;;8.00;98.60;;;;;;4973503;28;20553;-45
2023/12/11 05:34:18;;;;;;;3.63;1.40;;;8.00;99.00;;;;;;4974073;28;20697;-45
2023/12/11 05:36:47;;;;;;;8.30;1.67;;;8.00;98.50;;;;;;4970393;28;20237;-45
2023/12/11 05:39:15;;;;;;;3.75;1.75;;;8.00;98.60;;;;;;4971324;28;20257;-45
2023/12/11 05:41:43;;;;;;;4.60;2.00;;;8.00;98.50;;;;;;4972164;28;20290;-46
2023/12/11 05:44:11;;;;;;;3.17;1.23;;;8.00;98.70;;;;;;4973748;28;20230;-45
2023/12/11 05:46:40;;;;;;;4.60;1.42;;;8.00;98.50;;;;;;4974444;28;20478;-45
2023/12/11 05:49:08;;;;;;;4.55;1.30;;;8.00;98.50;;;;;;4973392;28;20219;-46
2023/12/11 05:51:36;;;;;;;3.95;1.42;;;8.00;98.70;;;;;;4967814;28;20669;-45
2023/12/11 05:54:05;;;;;;;6.40;2.42;;;8.00;98.50;;;;;;4973468;28;20226;-44
2023/12/11 05:56:33;;;;;;;2.90;1.40;;;8.00;98.50;;;;;;4971708;28;20213;-45
2023/12/11 05:59:02;;;;;;;4.43;1.55;;;8.00;98.40;;;;;;4973719;28;21010;-45
2023/12/11 06:01:30;;;;;;;4.70;1.67;;;8.00;98.50;;;;;;4974722;28;20565;-45
2023/12/11 06:04:00;;;;;;;3.65;2.03;;;8.00;98.50;;;;;;4974529;28;20230;-45
2023/12/11 06:06:28;;;;;;;2.90;1.25;;;8.00;98.60;;;;;;4971538;28;20197;-45
2023/12/11 06:08:58;;;;;;;3.83;1.30;;;8.00;98.40;;;;;;4974050;28;20238;-45
2023/12/11 06:11:28;;;;;;;4.68;1.75;;;8.00;98.40;;;;;;4970740;28;20439;-45
2023/12/11 06:13:56;;;;;;;2.97;1.40;;;8.00;98.50;;;;;;4979373;28;20231;-45
2023/12/11 06:16:24;;;;;;;5.22;1.65;;;8.00;98.50;;;;;;4972166;28;20290;-45
2023/12/11 06:18:52;;;;;;;3.53;1.63;;;8.00;98.50;;;;;;4982766;28;20245;-45
2023/12/11 06:21:21;;;;;;;3.20;1.13;;;8.00;98.50;;;;;;4968299;28;20191;-45
2023/12/11 06:23:49;;;;;;;2.88;1.42;;;8.00;98.40;;;;;;4973803;28;20504;-45
2023/12/11 06:26:26;;;;;;;4.00;1.50;;;8.00;98.60;;;;;;4972001;28;20558;-45
2023/12/11 06:28:57;;;;;;;4.55;1.38;;;8.00;98.60;;;;;;4971674;28;21041;-45
2023/12/11 06:31:25;;;;;;;6.97;1.73;;;8.00;98.50;;;;;;4971258;28;20193;-45
2023/12/11 06:33:53;;;;;;;2.88;1.00;;;8.00;98.60;;;;;;4972937;28;20313;-45
2023/12/11 06:36:22;;;;;;;4.50;1.20;;;8.00;98.40;;;;;;4974774;28;20243;-45
2023/12/11 06:38:51;;;;;;;3.10;1.17;;;8.00;98.60;;;;;;4978594;28;20230;-46
2023/12/11 06:41:19;;;;;;;3.20;1.38;;;8.00;98.50;;;;;;4973393;28;20677;-45
2023/12/11 06:43:48;;;;;;;3.53;1.20;;;8.00;98.60;;;;;;4978126;28;20215;-45
2023/12/11 06:46:18;;;;;;;3.17;1.30;;;8.00;98.60;;;;;;4977391;28;20206;-45
2023/12/11 06:48:46;;;;;;;6.72;1.25;;;8.00;98.50;;;;;;4978646;28;20235;-45
2023/12/11 06:51:15;;;;;;;4.15;1.42;;;8.00;98.70;;;;;;4971374;28;20199;-45
2023/12/11 06:53:46;;;;;;;3.78;1.38;;;8.00;98.60;;;;;;4979010;28;20219;-45
2023/12/11 06:56:18;;;;;;;5.10;1.35;;;8.00;98.50;;;;;;4975869;28;20203;-46
2023/12/11 06:58:47;;;;;;;4.68;1.20;;;8.00;98.60;;;;;;4976659;28;20729;-45
2023/12/11 07:01:15;;;;;;;3.20;1.35;;;8.00;98.40;;;;;;4977420;28;20291;-45
2023/12/11 07:03:48;;;;;;;2.90;1.35;;;8.00;98.50;;;;;;4976710;28;20727;-45
2023/12/11 07:06:18;;;;;;;3.75;1.48;;;8.00;98.40;;;;;;4969873;28;20676;-45
2023/12/11 07:08:46;;;;;;;4.07;1.10;;;8.00;98.50;;;;;;4981415;28;20304;-45
2023/12/11 07:11:14;;;;;;;6.33;1.53;;;8.00;98.50;;;;;;4975684;28;20538;-45
2023/12/11 07:13:42;;;;;;;3.72;1.35;;;8.00;98.50;;;;;;4977908;28;20465;-45
2023/12/11 07:16:11;;;;;;;4.80;1.52;;;8.00;98.50;;;;;;4977777;28;20215;-45
2023/12/11 07:18:39;;;;;;;7.30;1.40;;;8.00;98.50;;;;;;4967140;28;20705;-45
2023/12/11 07:21:10;;;;;;;3.25;1.50;;;8.00;98.60;;;;;;4978946;28;20225;-45
2023/12/11 07:23:39;;;;;;;5.53;1.07;;;8.00;98.50;;;;;;4977605;28;20218;-45
2023/12/11 07:26:09;;;;;;;4.53;1.40;;;8.00;98.50;;;;;;4973899;28;20446;-45
2023/12/11 07:28:38;;;;;;;4.10;1.50;;;8.00;98.40;;;;;;4976103;28;20462;-45
2023/12/11 07:31:07;;;;;;;3.95;1.10;;;8.00;98.50;;;;;;4983601;28;20449;-45
2023/12/11 07:33:35;;;;;;;4.00;2.03;;;8.00;98.60;;;;;;4976930;28;20227;-45
2023/12/11 07:36:04;;;;;;;3.70;1.38;;;8.00;98.70;;;;;;4971381;28;20192;-45
2023/12/11 07:38:34;;;;;;;2.90;1.60;;;8.10;98.60;;;;;;4978069;28;20689;-45
2023/12/11 07:41:03;;;;;;;4.53;1.33;;;8.00;98.50;;;;;;4978257;28;20261;-45
2023/12/11 07:43:35;;;;;;;4.87;1.20;;;8.00;98.60;;;;;;4976260;28;20222;-44
2023/12/11 07:46:04;;;;;;;6.53;2.45;;;8.10;98.70;;;;;;4977448;28;20431;-45
2023/12/11 07:48:32;;;;;;;3.80;1.20;;;8.00;98.50;;;;;;4982802;28;20940;-45
2023/12/11 07:51:00;;;;;;;3.65;1.30;;;8.10;99.00;;;;;;4977704;28;20195;-45
2023/12/11 07:53:28;;;;;;;7.40;1.88;;;8.10;99.00;;;;;;4973660;28;20294;-45
2023/12/11 07:55:58;;;;;;;4.90;1.88;;;8.10;98.70;;;;;;4976348;28;20934;-45
2023/12/11 07:58:27;;;;;;;10.63;2.60;;;8.10;99.10;;;;;;4972397;28;20489;-45
2023/12/11 08:00:55;;;;;;;5.97;1.63;;;8.20;99.90;;;;;;4977224;28;20191;-45
2023/12/11 08:03:23;;;;;;;3.78;2.30;;;8.20;99.60;;;;;;4991273;28;20979;-45
2023/12/11 08:05:51;;;;;;;7.40;2.13;;;8.10;99.00;;;;;;4971252;28;20334;-45
2023/12/11 08:08:20;;;;;;;4.27;1.83;;;8.10;98.80;;;;;;4973858;28;20723;-45
2023/12/11 08:10:51;;;;;;;6.15;2.22;;;8.10;98.80;;;;;;4976898;28;20440;-45
2023/12/11 08:13:20;;;;;;;6.03;1.60;;;8.10;99.00;;;;;;4972908;28;20249;-45
2023/12/11 08:15:48;;;;;;;5.93;1.67;;;8.10;98.90;;;;;;4976414;28;20464;-45
2023/12/11 08:18:16;;;;;;;4.93;1.77;;;8.10;98.90;;;;;;4980171;28;21209;-45
2023/12/11 08:20:44;;;;;;;6.65;1.90;;;8.10;98.80;;;;;;4971679;28;20643;-45
2023/12/11 08:23:13;;;;;;;6.55;1.75;;;8.10;98.80;;;;;;4975550;28;20554;-45
2023/12/11 08:25:41;;;;;;;5.28;1.63;;;8.10;98.90;;;;;;4977573;28;20547;-45
2023/12/11 08:28:10;;;;;;;5.78;1.48;;;8.10;98.80;;;;;;4972429;28;20293;-45
2023/12/11 08:30:39;;;;;;;7.05;2.00;;;8.10;99.40;;;;;;4976853;28;20601;-45
2023/12/11 08:33:13;;;;;;;5.32;1.35;;;8.10;98.80;;;;;;4968632;28;20199;-45
2023/12/11 08:35:42;;;;;;;5.97;1.88;;;8.10;98.90;;;;;;4976382;28;20753;-45
2023/12/11 08:38:10;;;;;;;4.90;1.30;;;8.10;98.80;;;;;;4968776;28;20219;-45
2023/12/11 08:40:38;;;;;;;4.75;1.27;;;8.10;98.90;;;;;;4976021;28;20450;-45
2023/12/11 08:43:06;;;;;;;7.05;2.00;;;8.10;98.90;;;;;;4969965;28;20267;-45
2023/12/11 08:45:35;;;;;;;4.60;1.60;;;8.10;98.90;;;;;;4974315;28;20286;-45
2023/12/11 08:48:10;;;;;;;5.88;1.77;;;8.10;98.90;;;;;;4979067;28;20222;-45
2023/12/11 08:50:39;;;;;;;5.43;1.85;;;8.10;98.90;;;;;;4974600;28;20195;-45
2023/12/11 08:53:07;;;;;;;2.70;1.50;;;8.10;99.00;;;;;;4974748;28;20191;-45
2023/12/11 08:55:36;;;;;;;4.60;1.67;;;8.10;99.00;;;;;;4974603;28;20948;-45
2023/12/11 08:58:07;;;;;;;2.60;1.30;;;8.10;98.90;;;;;;4970943;28;20643;-44
2023/12/11 09:00:41;;;;;;;6.13;1.80;;;8.10;98.80;;;;;;4977688;28;20227;-45
2023/12/11 09:03:10;;;;;;;4.47;1.27;;;8.10;98.80;;;;;;4970983;28;20419;-45
2023/12/11 09:05:41;;;;;;;5.65;1.65;;;8.10;98.90;;;;;;4969928;28;20215;-45
2023/12/11 09:08:09;;;;;;;4.22;2.15;;;8.10;98.70;;;;;;4980529;28;20218;-45
2023/12/11 09:10:38;;;;;;;4.97;1.40;;;8.10;98.80;;;;;;4977482;28;20198;-44
2023/12/11 09:13:06;;;;;;;7.22;1.52;;;8.10;98.80;;;;;;4971630;28;20825;-45
2023/12/11 09:15:34;;;;;;;6.47;1.55;;;8.10;98.80;;;;;;4977087;28;20206;-45
2023/12/11 09:18:02;;;;;;;6.18;1.70;;;8.10;98.80;;;;;;4974650;28;20708;-45
2023/12/11 09:20:32;;;;;;;5.75;2.30;;;8.10;98.90;;;;;;4974955;28;20201;-45
2023/12/11 09:23:00;;;;;;;8.55;2.28;;;8.10;98.80;;;;;;4976963;28;20198;-45
2023/12/11 09:25:28;;;;;;;6.50;1.85;;;8.10;98.90;;;;;;4975678;28;20202;-45
2023/12/11 09:28:10;;;;;;;4.03;1.42;;;8.10;98.90;;;;;;4969170;28;20209;-45
2023/12/11 09:30:38;;;;;;;6.00;1.97;;;8.10;98.90;;;;;;4977514;28;20198;-45
2023/12/11 09:33:06;;;;;;;4.20;1.50;;;8.10;98.90;;;;;;4974389;28;20431;-45
2023/12/11 09:35:40;;;;;;;4.35;1.65;;;8.20;98.80;;;;;;4968846;28;20654;-45
2023/12/11 09:38:10;;;;;;;3.97;1.85;;;8.10;98.80;;;;;;4972551;28;20759;-45
2023/12/11 09:40:38;;;;;;;4.97;1.70;;;8.10;98.70;;;;;;4973946;28;20195;-44
2023/12/11 09:43:07;;;;;;;3.65;1.58;;;8.10;98.90;;;;;;4968777;28;20208;-45
2023/12/11 09:45:35;;;;;;;6.10;1.80;;;8.10;98.80;;;;;;4974840;28;20649;-45
2023/12/11 09:48:03;;;;;;;4.00;1.80;;;8.10;98.80;;;;;;4972337;28;21500;-45
2023/12/11 09:50:42;;;;;;;4.30;1.50;;;8.10;98.80;;;;;;4974220;28;20267;-45
2023/12/11 09:53:11;;;;;;;6.93;2.10;;;8.10;98.80;;;;;;4979277;28;20804;-45
2023/12/11 09:55:39;;;;;;;3.10;2.03;;;8.10;98.80;;;;;;4976768;28;20196;-45
2023/12/11 09:58:08;;;;;;;5.37;1.33;;;8.10;98.70;;;;;;4971182;28;20227;-45
2023/12/11 10:00:37;;;;;;;5.63;2.03;;;8.10;98.70;;;;;;4976354;28;20451;-44
2023/12/11 10:03:07;;;;;;;3.93;1.67;;;8.10;98.80;;;;;;4974485;28;20442;-45
2023/12/11 10:05:36;;;;;;;4.53;1.48;;;8.20;98.80;;;;;;4973155;28;20925;-45
2023/12/11 10:08:06;;;;;;;5.57;1.90;;;8.10;98.70;;;;;;4979156;28;20486;-45
2023/12/11 10:10:38;;;;;;;5.90;1.57;;;8.10;98.70;;;;;;4973987;28;20579;-45
2023/12/11 10:13:06;;;;;;;5.13;1.80;;;8.10;98.80;;;;;;4970910;28;20480;-45
2023/12/11 10:15:36;;;;;;;7.50;1.97;;;8.10;98.60;;;;;;4976431;28;20442;-45
2023/12/11 10:18:07;;;;;;;7.32;2.65;;;8.10;98.20;;;;;;4974746;28;21015;-45
2023/12/11 10:20:38;;;;;;;4.72;2.00;;;8.10;98.60;;;;;;4973813;28;20294;-45
2023/12/11 10:23:16;;;;;;;4.90;1.60;;;8.20;98.70;;;;;;4976675;28;20191;-45
2023/12/11 10:25:46;;;;;;;6.47;1.35;;;8.20;98.70;;;;;;4976217;28;20446;-45
2023/12/11 10:28:17;;;;;;;6.10;1.90;;;8.10;98.60;;;;;;4971049;28;20215;-45
2023/12/11 10:30:53;;;;;;;4.83;1.50;;;8.20;98.60;;;;;;4976766;28;20445;-45
2023/12/11 10:33:23;;;;;;;4.47;1.50;;;8.10;98.60;;;;;;4972770;28;20453;-45
2023/12/11 10:35:53;;;;;;;11.03;1.60;;;8.20;98.70;;;;;;4966128;28;20198;-45
2023/12/11 10:38:23;;;;;;;7.38;1.83;;;8.10;99.20;;;;;;4977142;28;20549;-46
2023/12/11 10:40:52;;;;;;;3.13;2.10;;;8.20;98.70;;;;;;4970318;28;20204;-45
2023/12/11 10:43:20;;;;;;;6.90;2.00;;;8.30;98.70;;;;;;4969224;28;20473;-46
2023/12/11 10:45:52;;;;;;;6.30;1.80;;;8.40;99.50;;;;;;4988909;28;20489;-46
2023/12/11 10:48:21;;;;;;;12.32;2.92;;;8.60;99.80;;;;;;4972946;28;20821;-45
2023/12/11 10:50:50;;;;;;;11.00;3.77;;;8.60;99.80;;;;;;4976868;28;20202;-45
2023/12/11 10:53:18;;;;;;;13.97;2.20;;;8.60;99.90;;;;;;4973069;28;20622;-45
2023/12/11 10:55:50;;;;;;;10.73;3.43;;;8.60;99.90;;;;;;4980202;28;20504;-45
2023/12/11 10:58:18;;;;;;;6.43;2.20;;;8.70;99.90;;;;;;4970883;28;20477;-46
2023/12/11 11:00:47;;;;;;;7.07;2.33;;;8.70;99.90;;;;;;4976757;28;20453;-45
2023/12/11 11:03:17;;;;;;;8.43;2.97;;;8.70;99.90;;;;;;4974070;28;20820;-46
2023/12/11 11:05:49;;;;;;;9.70;2.37;;;8.80;99.90;;;;;;4976884;28;20819;-45
2023/12/11 11:08:26;;;;;;;8.82;2.83;;;8.80;99.90;;;;;;4972222;28;20852;-45
2023/12/11 11:10:59;;;;;;;10.87;2.40;;;8.80;99.90;;;;;;4970662;28;20202;-45
2023/12/11 11:13:33;;;;;;;6.50;2.80;;;8.70;99.50;;;;;;4970766;28;20497;-45
2023/12/11 11:16:02;;;;;;;14.18;3.67;;;8.70;99.20;;;;;;4973676;28;20429;-45
2023/12/11 11:18:51;;;;;;;8.90;2.80;;;8.60;99.30;;;;;;4974277;28;20776;-45
2023/12/11 11:21:19;;;;;;;5.60;2.33;;;8.60;99.30;;;;;;4976254;28;20447;-45
2023/12/11 11:23:47;;;;;;;5.67;2.17;;;8.50;99.20;;;;;;4983881;28;20470;-45
2023/12/11 11:29:09;;;;;;;6.80;2.27;;;8.50;99.30;;;;;;5084905;27;20540;-46
2023/12/11 11:31:51;;;;;;;7.80;2.20;;;8.50;99.40;;;;;;5074406;28;20791;-47
2023/12/11 11:34:43;;;;;;;5.17;2.37;;;8.40;99.30;;;;;;5071233;28;20465;-45
2023/12/11 11:37:13;;;;;;;5.10;1.90;;;8.40;99.30;;;;;;5070256;28;20445;-45
2023/12/11 11:39:58;;;;;;;7.87;2.87;;;8.40;99.30;;;;;;5072459;28;20983;-46
2023/12/11 11:42:27;;;;;;;6.60;2.33;;;8.40;99.20;;;;;;5076723;28;20996;-47
2023/12/11 11:44:58;;;;;;;9.47;1.83;;;8.40;99.30;;;;;;5075192;28;20462;-47
2023/12/11 11:47:26;;;;;;;6.60;2.33;;;8.40;99.40;;;;;;5074477;28;20464;-44
2023/12/11 11:50:04;;;;;;;10.07;2.80;;;8.30;99.30;;;;;;5066282;28;20506;-47
2023/12/11 11:52:35;;;;;;;6.90;2.07;;;8.40;99.60;;;;;;5068326;28;20468;-46
2023/12/11 11:55:10;;;;;;;6.43;2.40;;;8.40;99.40;;;;;;5073323;28;20488;-46
2023/12/11 11:57:39;;;;;;;7.03;2.40;;;8.40;99.30;;;;;;5073830;28;20441;-45
2023/12/11 12:00:11;;;;;;;8.70;2.13;;;8.40;99.30;;;;;;5076245;28;20545;-46
2023/12/11 12:02:39;;;;;;;10.27;2.93;;;8.40;99.90;;;;;;5077135;28;20426;-46
2023/12/11 12:05:07;;;;;;;11.75;2.58;;;8.50;99.90;;;;;;5071952;28;20839;-46
2023/12/11 12:07:40;;;;;;;8.63;2.30;;;8.60;99.90;;;;;;5072856;28;20203;-46
2023/12/11 12:10:12;;;;;;;10.57;3.03;;;8.60;99.90;;;;;;5067398;28;20842;-44
2023/12/11 12:12:40;;;;;;;10.00;2.23;;;8.60;99.90;;;;;;5067919;28;20854;-46
2023/12/11 12:15:10;;;;;;;10.63;2.00;;;8.50;99.90;;;;;;5067963;28;20456;-46
2023/12/11 12:17:39;;;;;;;11.40;3.03;;;8.50;99.90;;;;;;5072937;28;20425;-47
2023/12/11 12:20:12;;;;;;;6.47;2.20;;;8.50;99.90;;;;;;5073075;28;20219;-47
2023/12/11 12:22:57;;;;;;;6.63;2.67;;;8.50;99.90;;;;;;5069236;28;20466;-47
2023/12/11 12:25:26;;;;;;;6.13;2.57;;;8.50;99.90;;;;;;5072187;28;20524;-46
2023/12/11 12:27:56;;;;;;;11.20;2.90;;;8.50;99.90;;;;;;5065299;28;20901;-45
2023/12/11 12:30:27;;;;;;;5.57;2.10;;;8.50;99.90;;;;;;5072742;28;20307;-46
2023/12/11 12:32:57;;;;;;;12.90;4.47;;;8.40;99.90;;;;;;5073241;28;20441;-46
2023/12/11 12:35:26;;;;;;;11.15;2.45;;;8.40;99.90;;;;;;5073788;28;20472;-46
2023/12/11 12:37:55;;;;;;;5.10;2.23;;;8.50;99.90;;;;;;5071228;28;20254;-45
2023/12/11 12:40:24;;;;;;;8.40;1.83;;;8.40;99.90;;;;;;5051975;28;20536;-46
2023/12/11 12:42:52;;;;;;;10.40;1.73;;;8.40;99.90;;;;;;5059292;28;20435;-45
2023/12/11 12:45:32;;;;;;;6.37;1.90;;;8.40;99.90;;;;;;5059566;28;20513;-47
2023/12/11 12:48:04;;;;;;;4.90;2.17;;;8.40;99.90;;;;;;5058548;28;21020;-47
2023/12/11 12:50:33;;;;;;;7.80;2.58;;;8.40;99.90;;;;;;5051322;28;20439;-46
2023/12/11 12:53:06;;;;;;;7.53;1.80;;;8.40;99.90;;;;;;5055862;28;20254;-46
2023/12/11 12:55:34;;;;;;;7.63;2.47;;;8.40;99.90;;;;;;5064817;28;20658;-45
2023/12/11 12:58:03;;;;;;;5.60;1.73;;;8.40;99.90;;;;;;5054628;28;20473;-46
2023/12/11 13:00:34;;;;;;;4.80;1.33;;;8.40;99.90;;;;;;5062259;28;20556;-45
2023/12/11 13:03:07;;;;;;;4.30;2.20;;;8.40;99.90;;;;;;5060276;28;20438;-46
2023/12/11 13:05:41;;;;;;;4.93;1.50;;;8.40;99.90;;;;;;5055308;28;20454;-45
2023/12/11 13:08:10;;;;;;;7.20;2.30;;;8.40;99.80;;;;;;5063642;28;20466;-46
2023/12/11 13:10:38;;;;;;;5.20;2.30;;;8.40;99.90;;;;;;5061991;28;20472;-45